createdAt,value
2018-12-17T00:00:59.804Z,100446.02
2018-12-17T00:02:02.299Z,100451.20
2018-12-17T00:03:04.775Z,100451.20
2018-12-17T00:04:07.254Z,100450.06
2018-12-17T00:05:09.729Z,100452.01
2018-12-17T00:06:12.222Z,100457.75
2018-12-17T00:07:14.701Z,100453.63
2018-12-17T00:08:17.195Z,100454.42
2018-12-17T00:09:19.661Z,100453.63
2018-12-17T00:10:22.122Z,100453.86
2018-12-17T00:11:24.606Z,100452.71
2018-12-17T00:12:27.078Z,100455.47
2018-12-17T00:13:29.576Z,100456.27
2018-12-17T00:14:32.077Z,100455.47
2018-12-17T00:15:34.550Z,100459.83
2018-12-17T00:16:37.036Z,100458.80
2018-12-17T00:17:39.501Z,100458.45
2018-12-17T00:18:42.015Z,100451.91
2018-12-17T00:19:44.504Z,100451.09
2018-12-17T00:20:46.996Z,100457.98
2018-12-17T00:21:49.474Z,100458.22
2018-12-17T00:22:51.952Z,100455.23
2018-12-17T00:23:54.453Z,100460.17
2018-12-17T00:24:56.930Z,100453.18
2018-12-17T00:25:59.408Z,100451.80
2018-12-17T00:27:01.905Z,100453.41
2018-12-17T00:28:08.086Z,100447.67
2018-12-17T00:29:08.890Z,100450.42
2018-12-17T00:30:11.429Z,100447.56
2018-12-17T00:31:13.900Z,100440.55
2018-12-17T00:32:16.374Z,100437.79
2018-12-17T00:33:18.854Z,100441.92
2018-12-17T00:34:21.361Z,100438.94
2018-12-17T00:35:23.917Z,100437.09
2018-12-17T00:36:26.376Z,100438.46
2018-12-17T00:37:28.838Z,100438.00
2018-12-17T00:38:31.314Z,100429.16
2018-12-17T00:39:33.796Z,100429.97
2018-12-17T00:40:36.266Z,100438.23
2018-12-17T00:41:38.734Z,100435.47
2018-12-17T00:42:41.278Z,100434.91
2018-12-17T00:43:45.332Z,100429.39
2018-12-17T00:44:48.086Z,100432.15
2018-12-17T00:45:50.572Z,100437.09
2018-12-17T00:46:53.050Z,100429.97
2018-12-17T00:47:55.528Z,100431.34
2018-12-17T00:48:57.984Z,100428.02
2018-12-17T00:50:00.484Z,100435.00
2018-12-17T00:51:02.978Z,100430.88
2018-12-17T00:52:05.440Z,100434.74
2018-12-17T00:53:08.006Z,100432.55
2018-12-17T00:54:10.468Z,100432.55
2018-12-17T00:55:13.082Z,100435.08
2018-12-17T00:56:15.573Z,100429.56
2018-12-17T00:57:18.041Z,100431.28
2018-12-17T00:58:20.518Z,100437.94
2018-12-17T00:59:22.990Z,100427.15
2018-12-17T01:00:25.474Z,100430.14
2018-12-17T01:01:27.946Z,100426.81
2018-12-17T01:02:30.437Z,100438.06
2018-12-17T01:03:32.913Z,100431.52
2018-12-17T01:04:35.755Z,100430.94
2018-12-17T01:05:38.255Z,100423.48
2018-12-17T01:06:40.749Z,100430.61
2018-12-17T01:07:43.211Z,100429.80
2018-12-17T01:08:45.702Z,100424.86
2018-12-17T01:09:48.178Z,100429.80
2018-12-17T01:10:50.666Z,100431.52
2018-12-17T01:11:53.128Z,100424.97
2018-12-17T01:12:55.621Z,100429.44
2018-12-17T01:13:58.116Z,100428.39
2018-12-17T01:15:00.604Z,100426.45
2018-12-17T01:16:05.862Z,100428.62
2018-12-17T01:17:08.338Z,100426.21
2018-12-17T01:18:10.870Z,100428.97
2018-12-17T01:19:13.331Z,100432.52
2018-12-17T01:20:15.823Z,100434.23
2018-12-17T01:21:18.690Z,100428.62
2018-12-17T01:22:21.152Z,100430.58
2018-12-17T01:23:23.640Z,100430.00
2018-12-17T01:24:26.114Z,100437.46
2018-12-17T01:25:28.598Z,100437.94
2018-12-17T01:26:31.080Z,100432.19
2018-12-17T01:27:33.566Z,100436.66
2018-12-17T01:28:36.607Z,100439.65
2018-12-17T01:29:39.067Z,100442.50
2018-12-17T01:30:41.561Z,100436.52
2018-12-17T01:31:44.055Z,100444.79
2018-12-17T01:33:48.355Z,100437.91
2018-12-17T01:34:50.826Z,100441.13
2018-12-17T01:35:53.302Z,100443.55
2018-12-17T01:36:55.791Z,100444.35
2018-12-17T01:37:58.250Z,100448.48
2018-12-17T01:39:00.712Z,100440.55
2018-12-17T01:40:03.453Z,100448.48
2018-12-17T01:41:05.930Z,100448.72
2018-12-17T01:42:08.770Z,100452.05
2018-12-17T01:43:11.246Z,100449.63
2018-12-17T01:44:13.727Z,100450.77
2018-12-17T01:45:16.200Z,100448.25
2018-12-17T01:46:18.693Z,100449.63
2018-12-17T01:47:21.192Z,100449.63
2018-12-17T01:48:23.674Z,100442.50
2018-12-17T01:49:26.136Z,100442.50
2018-12-17T01:50:28.611Z,100446.17
2018-12-17T01:51:31.086Z,100455.81
2018-12-17T01:52:33.582Z,100450.30
2018-12-17T01:53:36.068Z,100453.52
2018-12-17T01:54:38.530Z,100452.14
2018-12-17T01:55:41.003Z,100454.56
2018-12-17T01:56:43.482Z,100451.23
2018-12-17T01:57:45.977Z,100452.05
2018-12-17T01:58:48.469Z,100448.48
2018-12-17T01:59:50.942Z,100439.88
2018-12-17T02:00:53.419Z,100442.06
2018-12-17T02:01:55.984Z,100446.77
2018-12-17T02:02:58.474Z,100444.02
2018-12-17T02:04:00.955Z,100444.35
2018-12-17T02:05:04.356Z,100440.22
2018-12-17T02:06:06.830Z,100444.35
2018-12-17T02:07:09.284Z,100441.83
2018-12-17T02:08:11.800Z,100436.32
2018-12-17T02:09:14.292Z,100433.33
2018-12-17T02:10:16.766Z,100431.95
2018-12-17T02:11:19.270Z,100430.00
2018-12-17T02:12:21.742Z,100434.94
2018-12-17T02:13:24.258Z,100428.39
2018-12-17T02:14:26.749Z,100430.00
2018-12-17T02:15:29.222Z,100428.62
2018-12-17T02:16:31.717Z,100436.32
2018-12-17T02:17:34.190Z,100432.32
2018-12-17T02:18:36.686Z,100438.17
2018-12-17T02:19:39.144Z,100436.55
2018-12-17T02:20:41.624Z,100440.45
2018-12-17T02:21:44.182Z,100443.20
2018-12-17T02:22:46.662Z,100440.79
2018-12-17T02:23:49.163Z,100435.62
2018-12-17T02:24:51.661Z,100437.80
2018-12-17T02:25:54.119Z,100435.85
2018-12-17T02:26:56.594Z,100438.94
2018-12-17T02:27:59.075Z,100443.87
2018-12-17T02:29:01.570Z,100442.17
2018-12-17T02:30:05.700Z,100439.41
2018-12-17T02:31:08.170Z,100441.36
2018-12-17T02:32:10.767Z,100446.30
2018-12-17T02:33:13.294Z,100455.03
2018-12-17T02:34:15.774Z,100453.66
2018-12-17T02:35:18.243Z,100455.84
2018-12-17T02:36:20.722Z,100452.85
2018-12-17T02:37:23.206Z,100458.13
2018-12-17T02:38:25.706Z,100461.35
2018-12-17T02:39:28.221Z,100465.25
2018-12-17T02:40:30.695Z,100463.30
2018-12-17T02:41:33.177Z,100462.27
2018-12-17T02:42:35.631Z,100464.20
2018-12-17T02:43:38.109Z,100464.78
2018-12-17T02:44:40.677Z,100470.05
2018-12-17T02:45:43.289Z,100468.11
2018-12-17T02:46:45.761Z,100475.56
2018-12-17T02:47:48.362Z,100469.82
2018-12-17T02:48:50.831Z,100466.96
2018-12-17T02:49:53.346Z,100464.78
2018-12-17T02:50:55.822Z,100474.66
2018-12-17T02:51:58.314Z,100475.94
2018-12-17T02:53:00.794Z,100476.17
2018-12-17T02:54:03.302Z,100477.31
2018-12-17T02:55:06.126Z,100481.11
2018-12-17T02:56:08.774Z,100473.41
2018-12-17T02:57:11.234Z,100477.55
2018-12-17T02:58:13.714Z,100478.36
2018-12-17T02:59:16.213Z,100476.91
2018-12-17T03:00:18.770Z,100482.08
2018-12-17T03:01:21.232Z,100480.70
2018-12-17T03:02:23.727Z,100486.45
2018-12-17T03:03:26.221Z,100486.69
2018-12-17T03:04:28.698Z,100482.31
2018-12-17T03:05:31.181Z,100488.30
2018-12-17T03:06:33.668Z,100496.56
2018-12-17T03:07:36.142Z,100493.81
2018-12-17T03:08:38.614Z,100496.23
2018-12-17T03:09:41.094Z,100495.09
2018-12-17T03:10:43.605Z,100495.55
2018-12-17T03:11:46.082Z,100488.91
2018-12-17T03:12:48.569Z,100498.45
2018-12-17T03:13:51.036Z,100495.22
2018-12-17T03:14:53.507Z,100497.30
2018-12-17T03:15:56.006Z,100502.81
2018-12-17T03:16:58.493Z,100498.68
2018-12-17T03:18:00.964Z,100495.36
2018-12-17T03:19:03.568Z,100498.95
2018-12-17T03:20:06.215Z,100505.73
2018-12-17T03:21:08.701Z,100499.89
2018-12-17T03:22:11.160Z,100502.88
2018-12-17T03:23:13.647Z,100501.97
2018-12-17T03:24:16.107Z,100496.45
2018-12-17T03:25:18.596Z,100501.97
2018-12-17T03:26:21.109Z,100498.75
2018-12-17T03:27:23.595Z,100497.13
2018-12-17T03:28:26.070Z,100492.42
2018-12-17T03:29:28.549Z,100501.97
2018-12-17T03:30:31.013Z,100500.48
2018-12-17T03:31:33.726Z,100498.77
2018-12-17T03:32:36.296Z,100501.77
2018-12-17T03:33:38.770Z,100503.61
2018-12-17T03:34:41.250Z,100503.20
2018-12-17T03:35:43.812Z,100502.73
2018-12-17T03:36:46.306Z,100503.54
2018-12-17T03:37:48.782Z,100502.87
2018-12-17T03:38:51.259Z,100499.06
2018-12-17T03:39:53.742Z,100499.64
2018-12-17T03:40:56.214Z,100501.02
2018-12-17T03:41:58.782Z,100501.25
2018-12-17T03:43:01.263Z,100504.02
2018-12-17T03:44:03.893Z,100501.83
2018-12-17T03:45:06.912Z,100495.97
2018-12-17T03:46:09.392Z,100499.06
2018-12-17T03:47:11.887Z,100502.30
2018-12-17T03:48:14.379Z,100501.15
2018-12-17T03:49:16.863Z,100500.00
2018-12-17T03:50:19.351Z,100496.11
2018-12-17T03:51:21.844Z,100497.95
2018-12-17T03:52:24.379Z,100502.09
2018-12-17T03:53:26.867Z,100509.68
2018-12-17T03:54:29.332Z,100500.77
2018-12-17T03:55:31.821Z,100506.98
2018-12-17T03:56:34.308Z,100503.98
2018-12-17T03:57:36.788Z,100503.75
2018-12-17T03:58:39.248Z,100505.83
2018-12-17T03:59:42.161Z,100506.64
2018-12-17T04:00:44.641Z,100509.53
2018-12-17T04:01:47.122Z,100505.63
2018-12-17T04:02:49.603Z,100510.46
2018-12-17T04:03:52.078Z,100509.89
2018-12-17T04:04:54.734Z,100515.09
2018-12-17T04:05:57.200Z,100508.52
2018-12-17T04:06:59.661Z,100512.11
2018-12-17T04:08:02.154Z,100502.69
2018-12-17T04:09:06.055Z,100509.23
2018-12-17T04:10:08.674Z,100503.85
2018-12-17T04:11:11.142Z,100505.00
2018-12-17T04:12:13.600Z,100508.56
2018-12-17T04:13:16.090Z,100510.28
2018-12-17T04:14:18.708Z,100514.88
2018-12-17T04:15:21.268Z,100507.76
2018-12-17T04:16:23.745Z,100513.50
2018-12-17T04:17:26.208Z,100514.78
2018-12-17T04:18:28.689Z,100510.88
2018-12-17T04:19:31.188Z,100515.51
2018-12-17T04:20:33.712Z,100524.09
2018-12-17T04:21:36.215Z,100523.78
2018-12-17T04:22:38.690Z,100520.45
2018-12-17T04:23:41.192Z,100514.94
2018-12-17T04:24:43.670Z,100518.81
2018-12-17T04:25:46.138Z,100521.83
2018-12-17T04:26:48.619Z,100517.12
2018-12-17T04:27:51.095Z,100518.50
2018-12-17T04:28:53.594Z,100521.19
2018-12-17T04:29:56.095Z,100518.66
2018-12-17T04:30:58.585Z,100513.95
2018-12-17T04:32:01.090Z,100520.16
2018-12-17T04:33:03.593Z,100519.59
2018-12-17T04:34:06.094Z,100521.31
2018-12-17T04:35:08.567Z,100524.41
2018-12-17T04:36:11.047Z,100527.41
2018-12-17T04:37:13.527Z,100519.47
2018-12-17T04:38:16.016Z,100524.64
2018-12-17T04:39:18.500Z,100523.27
2018-12-17T04:40:20.970Z,100521.88
2018-12-17T04:41:23.450Z,100526.94
2018-12-17T04:42:25.944Z,100526.25
2018-12-17T04:43:28.401Z,100524.64
2018-12-17T04:44:30.904Z,100523.27
2018-12-17T04:45:33.393Z,100523.73
2018-12-17T04:46:35.875Z,100527.06
2018-12-17T04:47:38.371Z,100528.44
2018-12-17T04:48:40.859Z,100524.30
2018-12-17T04:49:43.379Z,100527.06
2018-12-17T04:50:45.857Z,100528.09
2018-12-17T04:51:48.320Z,100527.87
2018-12-17T04:52:50.799Z,100524.30
2018-12-17T04:53:53.296Z,100527.19
2018-12-17T04:54:55.835Z,100525.80
2018-12-17T04:55:58.338Z,100532.70
2018-12-17T04:57:00.828Z,100530.17
2018-12-17T04:58:04.061Z,100529.38
2018-12-17T04:59:06.546Z,100541.91
2018-12-17T05:00:09.286Z,100537.77
2018-12-17T05:01:11.748Z,100531.56
2018-12-17T05:02:14.242Z,100533.74
2018-12-17T05:03:16.737Z,100537.77
2018-12-17T05:04:19.224Z,100540.77
2018-12-17T05:05:21.777Z,100540.20
2018-12-17T05:06:24.304Z,100535.36
2018-12-17T05:07:26.778Z,100539.60
2018-12-17T05:08:29.246Z,100534.89
2018-12-17T05:09:31.726Z,100541.55
2018-12-17T05:10:34.230Z,100541.89
2018-12-17T05:11:37.619Z,100542.23
2018-12-17T05:12:40.080Z,100541.42
2018-12-17T05:13:42.550Z,100552.23
2018-12-17T05:14:45.023Z,100538.54
2018-12-17T05:15:47.534Z,100543.56
2018-12-17T05:16:50.014Z,100546.66
2018-12-17T05:17:52.509Z,100539.27
2018-12-17T05:18:55.001Z,100539.27
2018-12-17T05:19:57.465Z,100537.42
2018-12-17T05:20:59.981Z,100549.59
2018-12-17T05:22:02.449Z,100547.98
2018-12-17T05:23:04.942Z,100547.75
2018-12-17T05:24:07.422Z,100550.84
2018-12-17T05:25:10.055Z,100547.05
2018-12-17T05:26:12.552Z,100555.33
2018-12-17T05:27:15.022Z,100546.01
2018-12-17T05:28:17.498Z,100543.48
2018-12-17T05:29:21.708Z,100553.50
2018-12-17T05:30:24.566Z,100550.17
2018-12-17T05:31:27.063Z,100553.27
2018-12-17T05:32:31.352Z,100561.08
2018-12-17T05:33:34.061Z,100555.90
2018-12-17T05:34:36.546Z,100562.63
2018-12-17T05:35:39.037Z,100569.73
2018-12-17T05:36:41.547Z,100562.84
2018-12-17T05:37:44.037Z,100568.64
2018-12-17T05:38:46.574Z,100565.47
2018-12-17T05:39:49.054Z,100572.73
2018-12-17T05:40:51.994Z,100566.58
2018-12-17T05:41:54.611Z,100571.42
2018-12-17T05:42:57.094Z,100572.51
2018-12-17T05:43:59.574Z,100576.09
2018-12-17T05:45:02.067Z,100575.91
2018-12-17T05:46:04.596Z,100573.16
2018-12-17T05:47:07.085Z,100575.34
2018-12-17T05:48:09.550Z,100569.98
2018-12-17T05:49:12.150Z,100567.79
2018-12-17T05:50:14.627Z,100569.75
2018-12-17T05:51:17.115Z,100569.28
2018-12-17T05:52:19.769Z,100573.84
2018-12-17T05:53:22.251Z,100572.12
2018-12-17T05:54:24.750Z,100577.05
2018-12-17T05:55:27.232Z,100578.38
2018-12-17T05:56:29.721Z,100574.12
2018-12-17T05:57:32.237Z,100577.33
2018-12-17T05:58:34.723Z,100578.37
2018-12-17T05:59:37.222Z,100575.38
2018-12-17T06:00:39.693Z,100572.84
2018-12-17T06:01:42.155Z,100569.63
2018-12-17T06:02:44.651Z,100574.62
2018-12-17T06:03:47.147Z,100577.45
2018-12-17T06:04:49.622Z,100574.30
2018-12-17T06:05:52.087Z,100574.25
2018-12-17T06:06:54.584Z,100574.53
2018-12-17T06:07:57.068Z,100582.98
2018-12-17T06:08:59.557Z,100582.61
2018-12-17T06:10:02.056Z,100581.67
2018-12-17T06:11:04.557Z,100583.25
2018-12-17T06:12:07.025Z,100589.98
2018-12-17T06:13:09.522Z,100581.91
2018-12-17T06:14:12.002Z,100587.39
2018-12-17T06:15:14.565Z,100585.61
2018-12-17T06:16:17.333Z,100592.93
2018-12-17T06:17:19.815Z,100594.50
2018-12-17T06:18:22.312Z,100590.53
2018-12-17T06:19:24.814Z,100593.72
2018-12-17T06:20:27.294Z,100594.39
2018-12-17T06:21:29.813Z,100596.20
2018-12-17T06:22:32.294Z,100594.88
2018-12-17T06:23:34.794Z,100597.50
2018-12-17T06:24:37.291Z,100600.34
2018-12-17T06:25:39.796Z,100599.06
2018-12-17T06:26:42.293Z,100592.81
2018-12-17T06:27:44.770Z,100602.22
2018-12-17T06:28:47.262Z,100595.39
2018-12-17T06:29:49.752Z,100594.67
2018-12-17T06:30:52.258Z,100603.03
2018-12-17T06:31:54.734Z,100597.86
2018-12-17T06:32:57.231Z,100601.75
2018-12-17T06:33:59.749Z,100600.70
2018-12-17T06:35:02.213Z,100604.03
2018-12-17T06:36:04.717Z,100607.69
2018-12-17T06:37:07.198Z,100605.80
2018-12-17T06:38:09.772Z,100611.06
2018-12-17T06:39:12.280Z,100610.83
2018-12-17T06:40:14.781Z,100611.16
2018-12-17T06:41:17.278Z,100612.87
2018-12-17T06:42:19.759Z,100615.95
2018-12-17T06:43:22.242Z,100621.22
2018-12-17T06:44:24.743Z,100618.22
2018-12-17T06:45:27.225Z,100617.98
2018-12-17T06:46:29.684Z,100616.61
2018-12-17T06:47:32.173Z,100614.99
2018-12-17T06:48:34.775Z,100619.36
2018-12-17T06:49:37.295Z,100620.27
2018-12-17T06:50:39.793Z,100623.58
2018-12-17T06:51:42.442Z,100624.72
2018-12-17T06:52:44.904Z,100618.94
2018-12-17T06:53:47.379Z,100627.53
2018-12-17T06:54:54.716Z,100626.72
2018-12-17T06:55:54.400Z,100628.10
2018-12-17T06:56:56.892Z,100627.05
2018-12-17T06:57:59.460Z,100631.99
2018-12-17T06:59:01.940Z,100635.31
2018-12-17T07:00:05.782Z,100632.32
2018-12-17T07:01:08.268Z,100635.07
2018-12-17T07:02:10.914Z,100635.16
2018-12-17T07:03:13.400Z,100639.36
2018-12-17T07:04:15.889Z,100636.60
2018-12-17T07:05:18.386Z,100638.13
2018-12-17T07:06:20.852Z,100641.03
2018-12-17T07:07:23.751Z,100640.94
2018-12-17T07:08:26.284Z,100640.03
2018-12-17T07:09:28.754Z,100648.20
2018-12-17T07:10:31.254Z,100647.67
2018-12-17T07:11:33.713Z,100649.28
2018-12-17T07:12:36.177Z,100652.04
2018-12-17T07:13:38.650Z,100648.66
2018-12-17T07:14:41.126Z,100648.77
2018-12-17T07:15:43.621Z,100646.20
2018-12-17T07:16:46.181Z,100651.00
2018-12-17T07:17:48.666Z,100645.73
2018-12-17T07:18:51.156Z,100646.95
2018-12-17T07:19:54.221Z,100653.70
2018-12-17T07:20:56.947Z,100652.08
2018-12-17T07:21:59.441Z,100657.02
2018-12-17T07:23:01.922Z,100663.98
2018-12-17T07:24:04.412Z,100666.27
2018-12-17T07:25:07.016Z,100666.50
2018-12-17T07:26:09.522Z,100667.87
2018-12-17T07:27:11.980Z,100668.03
2018-12-17T07:28:14.459Z,100667.13
2018-12-17T07:29:16.942Z,100665.76
2018-12-17T07:30:19.402Z,100669.70
2018-12-17T07:31:21.884Z,100670.94
2018-12-17T07:32:24.404Z,100669.05
2018-12-17T07:33:26.875Z,100671.63
2018-12-17T07:34:29.430Z,100673.69
2018-12-17T07:35:31.998Z,100671.55
2018-12-17T07:36:34.480Z,100677.87
2018-12-17T07:37:36.983Z,100675.73
2018-12-17T07:38:39.533Z,100674.44
2018-12-17T07:39:42.086Z,100679.28
2018-12-17T07:40:44.544Z,100680.47
2018-12-17T07:41:47.038Z,100680.31
2018-12-17T07:42:49.506Z,100684.02
2018-12-17T07:43:52.065Z,100687.63
2018-12-17T07:44:54.564Z,100686.25
2018-12-17T07:45:57.035Z,100686.39
2018-12-17T07:46:59.567Z,100691.50
2018-12-17T07:48:02.056Z,100684.52
2018-12-17T07:49:04.543Z,100695.45
2018-12-17T07:50:07.164Z,100690.41
2018-12-17T07:51:09.653Z,100692.76
2018-12-17T07:52:12.150Z,100693.30
2018-12-17T07:53:14.626Z,100693.80
2018-12-17T07:54:17.141Z,100694.17
2018-12-17T07:55:19.623Z,100692.56
2018-12-17T07:56:22.087Z,100700.73
2018-12-17T07:57:24.606Z,100696.84
2018-12-17T07:58:27.068Z,100700.16
2018-12-17T07:59:29.542Z,100703.73
2018-12-17T08:00:32.025Z,100705.92
2018-12-17T08:01:34.491Z,100706.49
2018-12-17T08:02:36.987Z,100706.25
2018-12-17T08:03:39.462Z,100708.78
2018-12-17T08:04:41.968Z,100716.72
2018-12-17T08:05:44.428Z,100715.34
2018-12-17T08:06:46.884Z,100714.05
2018-12-17T08:07:49.393Z,100716.48
2018-12-17T08:08:51.883Z,100717.28
2018-12-17T08:09:54.382Z,100719.48
2018-12-17T08:10:56.866Z,100719.71
2018-12-17T08:11:59.345Z,100721.33
2018-12-17T08:13:01.904Z,100722.94
2018-12-17T08:14:04.461Z,100720.19
2018-12-17T08:15:07.082Z,100724.02
2018-12-17T08:16:09.573Z,100727.08
2018-12-17T08:17:12.122Z,100725.97
2018-12-17T08:18:23.597Z,100723.69
2018-12-17T08:19:26.155Z,100731.08
2018-12-17T08:20:28.622Z,100728.66
2018-12-17T08:21:31.092Z,100731.89
2018-12-17T08:22:33.596Z,100736.73
2018-12-17T08:23:36.094Z,100735.13
2018-12-17T08:24:38.588Z,100737.31
2018-12-17T08:25:41.069Z,100738.93
2018-12-17T08:26:43.557Z,100734.45
2018-12-17T08:27:46.039Z,100734.92
2018-12-17T08:28:48.549Z,100737.83
2018-12-17T08:29:51.012Z,100737.75
2018-12-17T08:30:53.568Z,100742.94
2018-12-17T08:31:56.232Z,100736.28
2018-12-17T08:32:58.732Z,100741.70
2018-12-17T08:34:01.231Z,100742.03
2018-12-17T08:35:04.254Z,100742.03
2018-12-17T08:36:06.800Z,100742.84
2018-12-17T08:37:09.283Z,100751.92
2018-12-17T08:38:11.759Z,100746.98
2018-12-17T08:39:14.274Z,100746.74
2018-12-17T08:40:16.845Z,100749.73
2018-12-17T08:41:19.336Z,100752.73
2018-12-17T08:42:21.814Z,100749.73
2018-12-17T08:43:24.314Z,100750.31
2018-12-17T08:44:26.822Z,100749.73
2018-12-17T08:45:30.470Z,100746.84
2018-12-17T08:46:33.183Z,100751.79
2018-12-17T08:47:35.658Z,100753.17
2018-12-17T08:48:38.153Z,100753.73
2018-12-17T08:49:40.650Z,100756.73
2018-12-17T08:50:43.112Z,100753.47
2018-12-17T08:51:45.605Z,100760.88
2018-12-17T08:52:48.079Z,100758.35
2018-12-17T08:53:50.555Z,100765.72
2018-12-17T08:54:53.131Z,100762.97
2018-12-17T08:55:55.607Z,100764.58
2018-12-17T08:56:58.098Z,100772.39
2018-12-17T08:58:00.564Z,100770.10
2018-12-17T08:59:03.042Z,100770.33
2018-12-17T09:00:11.135Z,100768.52
2018-12-17T09:01:13.793Z,100771.52
2018-12-17T09:02:16.262Z,100766.00
2018-12-17T09:03:18.739Z,100772.56
2018-12-17T09:04:21.196Z,100775.02
2018-12-17T09:05:23.811Z,100772.49
2018-12-17T09:06:26.275Z,100772.16
2018-12-17T09:07:28.751Z,100780.20
2018-12-17T09:08:31.230Z,100782.16
2018-12-17T09:09:33.696Z,100772.49
2018-12-17T09:10:36.205Z,100771.82
2018-12-17T09:11:38.700Z,100780.00
2018-12-17T09:12:41.172Z,100780.91
2018-12-17T09:13:43.698Z,100782.52
2018-12-17T09:14:46.178Z,100787.23
2018-12-17T09:15:48.674Z,100792.76
2018-12-17T09:16:51.229Z,100787.23
2018-12-17T09:17:53.778Z,100795.05
2018-12-17T09:18:56.247Z,100798.95
2018-12-17T09:19:58.723Z,100797.33
2018-12-17T09:21:01.236Z,100795.72
2018-12-17T09:22:04.289Z,100798.48
2018-12-17T09:23:06.898Z,100793.50
2018-12-17T09:24:09.435Z,100796.59
2018-12-17T09:25:11.907Z,100800.97
2018-12-17T09:26:14.384Z,100804.00
2018-12-17T09:27:16.869Z,100805.92
2018-12-17T09:28:19.364Z,100804.81
2018-12-17T09:29:21.860Z,100810.63
2018-12-17T09:30:24.340Z,100812.28
2018-12-17T09:31:26.843Z,100807.23
2018-12-17T09:32:29.384Z,100810.56
2018-12-17T09:33:31.850Z,100813.89
2018-12-17T09:34:34.330Z,100809.75
2018-12-17T09:35:36.888Z,100817.13
2018-12-17T09:36:39.378Z,100818.51
2018-12-17T09:37:41.848Z,100823.80
2018-12-17T09:38:44.354Z,100823.32
2018-12-17T09:39:46.831Z,100834.66
2018-12-17T09:40:49.306Z,100828.34
2018-12-17T09:41:51.803Z,100836.61
2018-12-17T09:42:54.754Z,100835.91
2018-12-17T09:43:57.234Z,100834.86
2018-12-17T09:44:59.712Z,100831.62
2018-12-17T09:46:02.194Z,100834.95
2018-12-17T09:47:04.714Z,100830.34
2018-12-17T09:48:07.216Z,100827.91
2018-12-17T09:49:09.832Z,100831.00
2018-12-17T09:50:12.339Z,100828.72
2018-12-17T09:51:19.479Z,100828.86
2018-12-17T09:52:19.324Z,100828.53
2018-12-17T09:53:21.825Z,100829.91
2018-12-17T09:54:24.317Z,100835.42
2018-12-17T09:55:26.780Z,100834.77
2018-12-17T09:56:29.254Z,100832.48
2018-12-17T09:57:31.741Z,100831.60
2018-12-17T09:58:34.226Z,100841.73
2018-12-17T09:59:36.688Z,100837.83
2018-12-17T10:00:39.169Z,100840.50
2018-12-17T10:01:41.660Z,100840.50
2018-12-17T10:02:44.172Z,100842.69
2018-12-17T10:03:46.665Z,100847.87
2018-12-17T10:04:49.144Z,100843.63
2018-12-17T10:05:51.618Z,100841.01
2018-12-17T10:06:54.091Z,100841.58
2018-12-17T10:07:56.586Z,100835.25
2018-12-17T10:08:59.067Z,100834.38
2018-12-17T10:10:01.562Z,100839.32
2018-12-17T10:11:04.025Z,100839.22
2018-12-17T10:12:06.491Z,100835.42
2018-12-17T10:13:08.976Z,100835.99
2018-12-17T10:14:11.454Z,100836.87
2018-12-17T10:15:14.098Z,100840.77
2018-12-17T10:16:16.578Z,100837.20
2018-12-17T10:17:19.062Z,100836.87
2018-12-17T10:18:21.595Z,100840.70
2018-12-17T10:19:24.145Z,100838.18
2018-12-17T10:20:26.614Z,100839.16
2018-12-17T10:21:29.080Z,100836.39
2018-12-17T10:22:31.569Z,100839.96
2018-12-17T10:23:34.048Z,100845.58
2018-12-17T10:24:36.516Z,100837.64
2018-12-17T10:25:39.057Z,100841.67
2018-12-17T10:26:41.597Z,100843.63
2018-12-17T10:27:44.053Z,100846.39
2018-12-17T10:28:46.540Z,100836.97
2018-12-17T10:29:49.010Z,100845.25
2018-12-17T10:30:51.510Z,100851.81
2018-12-17T10:31:54.009Z,100847.10
2018-12-17T10:32:56.499Z,100846.22
2018-12-17T10:33:59.020Z,100847.10
2018-12-17T10:35:01.508Z,100844.34
2018-12-17T10:36:04.126Z,100842.32
2018-12-17T10:37:06.606Z,100846.46
2018-12-17T10:38:09.079Z,100845.80
2018-12-17T10:39:11.574Z,100844.65
2018-12-17T10:40:14.062Z,100840.51
2018-12-17T10:41:16.539Z,100847.41
2018-12-17T10:42:19.000Z,100846.50
2018-12-17T10:43:21.505Z,100846.97
2018-12-17T10:44:24.053Z,100842.16
2018-12-17T10:45:26.533Z,100841.28
2018-12-17T10:46:29.088Z,100841.59
2018-12-17T10:47:31.543Z,100839.63
2018-12-17T10:48:34.015Z,100843.78
2018-12-17T10:49:36.515Z,100844.85
2018-12-17T10:50:39.001Z,100850.11
2018-12-17T10:51:41.501Z,100847.34
2018-12-17T10:52:43.967Z,100847.21
2018-12-17T10:53:46.506Z,100847.21
2018-12-17T10:54:49.003Z,100846.97
2018-12-17T10:55:51.482Z,100851.11
2018-12-17T10:56:53.977Z,100846.50
2018-12-17T10:57:56.437Z,100849.27
2018-12-17T10:58:58.910Z,100855.59
2018-12-17T11:00:01.392Z,100848.79
2018-12-17T11:01:09.627Z,100846.84
2018-12-17T11:02:14.064Z,100852.50
2018-12-17T11:03:18.528Z,100852.26
2018-12-17T11:04:22.990Z,100855.83
2018-12-17T11:05:25.464Z,100858.02
2018-12-17T11:06:27.938Z,100858.36
2018-12-17T11:07:30.396Z,100854.21
2018-12-17T11:08:32.867Z,100863.54
2018-12-17T11:09:35.332Z,100863.30
2018-12-17T11:10:37.939Z,100861.25
2018-12-17T11:11:40.411Z,100859.30
2018-12-17T11:12:42.886Z,100857.92
2018-12-17T11:13:45.343Z,100857.59
2018-12-17T11:14:47.838Z,100861.08
2018-12-17T11:15:50.426Z,100854.66
2018-12-17T11:16:52.925Z,100853.17
2018-12-17T11:17:55.421Z,100858.22
2018-12-17T11:18:57.910Z,100853.03
2018-12-17T11:20:00.372Z,100850.75
2018-12-17T11:21:02.867Z,100855.13
2018-12-17T11:22:05.357Z,100857.66
2018-12-17T11:23:07.821Z,100852.94
2018-12-17T11:24:10.302Z,100854.89
2018-12-17T11:25:12.767Z,100849.84
2018-12-17T11:26:15.266Z,100853.98
2018-12-17T11:27:17.747Z,100856.41
2018-12-17T11:28:20.230Z,100860.65
2018-12-17T11:29:22.693Z,100852.12
2018-12-17T11:30:25.162Z,100855.70
2018-12-17T11:31:27.667Z,100860.41
2018-12-17T11:32:30.138Z,100863.17
2018-12-17T11:33:32.600Z,100864.55
2018-12-17T11:34:35.077Z,100864.32
2018-12-17T11:35:37.554Z,100863.41
2018-12-17T11:36:40.128Z,100864.32
2018-12-17T11:37:42.591Z,100864.08
2018-12-17T11:38:45.070Z,100863.27
2018-12-17T11:39:47.542Z,100866.84
2018-12-17T11:40:50.030Z,100864.32
2018-12-17T11:41:52.505Z,100870.41
2018-12-17T11:42:54.968Z,100868.80
2018-12-17T11:43:57.425Z,100869.37
2018-12-17T11:44:59.898Z,100871.56
2018-12-17T11:46:04.470Z,100868.80
2018-12-17T11:47:06.943Z,100864.55
2018-12-17T11:48:09.418Z,100857.31
2018-12-17T11:49:11.876Z,100855.59
2018-12-17T11:50:14.336Z,100857.45
2018-12-17T11:51:16.830Z,100864.36
2018-12-17T11:52:19.327Z,100869.20
2018-12-17T11:53:21.822Z,100861.16
2018-12-17T11:54:24.445Z,100866.11
2018-12-17T11:55:26.911Z,100856.88